createdAt,value
2023-10-30T00:02:19.215Z,10.67
2023-10-30T00:04:59.686Z,10.60
2023-10-30T00:07:29.032Z,10.96
2023-10-30T00:09:58.761Z,11.01
2023-10-30T00:12:26.800Z,11.08
2023-10-30T00:14:56.884Z,11.18
2023-10-30T00:17:25.287Z,11.04
2023-10-30T00:19:53.509Z,11.11
2023-10-30T00:22:22.680Z,11.18
2023-10-30T00:24:51.003Z,11.12
2023-10-30T00:27:20.284Z,11.12
2023-10-30T00:29:48.837Z,11.11
2023-10-30T00:32:17.783Z,11.02
2023-10-30T00:34:46.473Z,11.02
2023-10-30T00:37:14.832Z,10.89
2023-10-30T00:39:42.853Z,11.11
2023-10-30T00:42:11.921Z,11.10
2023-10-30T00:44:41.696Z,11.01
2023-10-30T00:47:10.142Z,11.13
2023-10-30T00:49:38.282Z,11.02
2023-10-30T00:52:07.466Z,11.01
2023-10-30T00:54:35.856Z,10.99
2023-10-30T00:57:04.162Z,10.99
2023-10-30T00:59:32.762Z,11.05
2023-10-30T01:02:03.128Z,11.09
2023-10-30T01:04:31.450Z,10.95
2023-10-30T01:06:59.978Z,10.98
2023-10-30T01:09:28.054Z,11.01
2023-10-30T01:11:57.816Z,11.00
2023-10-30T01:14:26.013Z,10.99
2023-10-30T01:16:54.010Z,10.40
2023-10-30T01:19:25.103Z,11.09
2023-10-30T01:21:53.203Z,10.97
2023-10-30T01:24:21.295Z,11.03
2023-10-30T01:26:50.424Z,10.96
2023-10-30T01:29:19.043Z,10.95
2023-10-30T01:31:47.074Z,10.94
2023-10-30T01:34:15.962Z,10.96
2023-10-30T01:36:46.097Z,10.93
2023-10-30T01:39:14.384Z,10.38
2023-10-30T01:41:42.562Z,10.81
2023-10-30T01:44:10.606Z,10.87
2023-10-30T01:46:39.225Z,10.93
2023-10-30T01:49:08.092Z,10.85
2023-10-30T01:51:38.229Z,10.90
2023-10-30T01:54:08.719Z,10.62
2023-10-30T01:56:37.423Z,10.89
2023-10-30T01:59:05.932Z,10.76
2023-10-30T02:01:38.914Z,10.95
2023-10-30T02:04:08.581Z,11.06
2023-10-30T02:06:36.583Z,11.01
2023-10-30T02:09:05.099Z,11.06
2023-10-30T02:11:34.579Z,10.99
2023-10-30T02:14:04.349Z,11.03
2023-10-30T02:16:32.686Z,10.94
2023-10-30T02:19:00.839Z,10.94
2023-10-30T02:21:28.889Z,10.91
2023-10-30T02:23:57.482Z,10.99
2023-10-30T02:26:26.987Z,10.99
2023-10-30T02:28:58.034Z,11.00
2023-10-30T02:31:27.156Z,10.94
2023-10-30T02:33:55.172Z,10.90
2023-10-30T02:36:23.698Z,10.93
2023-10-30T02:38:51.572Z,11.05
2023-10-30T02:41:20.174Z,10.98
2023-10-30T02:43:50.009Z,10.89
2023-10-30T02:46:18.307Z,10.96
2023-10-30T02:48:46.140Z,11.00
2023-10-30T02:51:14.386Z,11.06
2023-10-30T02:53:42.677Z,11.06
2023-10-30T02:56:10.953Z,10.95
2023-10-30T02:58:39.101Z,11.07
2023-10-30T03:01:08.793Z,10.78
2023-10-30T03:03:37.199Z,11.06
2023-10-30T03:06:06.595Z,10.98
2023-10-30T03:08:34.615Z,11.02
2023-10-30T03:11:03.177Z,11.02
2023-10-30T03:13:31.314Z,11.04
2023-10-30T03:16:00.103Z,10.99
2023-10-30T03:18:30.407Z,10.97
2023-10-30T03:20:58.897Z,11.00
2023-10-30T03:23:26.799Z,10.93
2023-10-30T03:25:55.689Z,10.45
2023-10-30T03:28:23.974Z,11.11
2023-10-30T03:30:52.939Z,11.13
2023-10-30T03:33:22.104Z,11.11
2023-10-30T03:35:51.546Z,11.16
2023-10-30T03:38:19.757Z,11.11
2023-10-30T03:40:48.158Z,11.15
2023-10-30T03:43:17.309Z,11.02
2023-10-30T03:45:47.063Z,10.99
2023-10-30T03:48:16.301Z,10.88
2023-10-30T03:50:45.632Z,10.67
2023-10-30T03:53:14.916Z,10.90
2023-10-30T03:55:43.629Z,10.96
2023-10-30T03:58:11.594Z,10.76
2023-10-30T04:00:39.869Z,10.99
2023-10-30T04:03:08.328Z,10.74
2023-10-30T04:05:36.882Z,10.88
2023-10-30T04:08:05.212Z,10.76
2023-10-30T04:10:34.825Z,10.93
2023-10-30T04:13:03.049Z,11.04
2023-10-30T04:15:31.155Z,11.00
2023-10-30T04:18:01.595Z,10.80
2023-10-30T04:20:32.938Z,11.08
2023-10-30T04:23:01.500Z,11.05
2023-10-30T04:25:29.367Z,11.04
2023-10-30T04:27:59.620Z,10.80
2023-10-30T04:30:27.958Z,11.07
2023-10-30T04:32:56.448Z,11.08
2023-10-30T04:35:24.527Z,11.14
2023-10-30T04:37:52.707Z,11.10
2023-10-30T04:40:20.730Z,11.13
2023-10-30T04:42:49.190Z,11.12
2023-10-30T04:45:19.444Z,11.10
2023-10-30T04:47:47.605Z,11.08
2023-10-30T04:50:16.010Z,11.02
2023-10-30T04:52:44.809Z,11.01
2023-10-30T04:55:13.035Z,11.13
2023-10-30T04:57:41.037Z,10.98
2023-10-30T05:00:10.796Z,11.02
2023-10-30T05:02:40.417Z,11.01
2023-10-30T05:05:08.910Z,11.01
2023-10-30T05:07:38.961Z,11.06
2023-10-30T05:10:07.455Z,11.03
2023-10-30T05:12:36.796Z,11.00
2023-10-30T05:15:05.946Z,11.01
2023-10-30T05:17:33.975Z,11.06
2023-10-30T05:20:05.095Z,11.02
2023-10-30T05:22:35.115Z,11.05
2023-10-30T05:25:04.240Z,11.06
2023-10-30T05:27:32.787Z,11.22
2023-10-30T05:30:01.470Z,11.12
2023-10-30T05:32:29.682Z,10.53
2023-10-30T05:34:58.888Z,11.02
2023-10-30T05:37:28.682Z,10.94
2023-10-30T05:39:56.958Z,11.00
2023-10-30T05:42:25.265Z,10.99
2023-10-30T05:44:53.654Z,10.66
2023-10-30T05:47:21.889Z,10.73
2023-10-30T05:49:50.283Z,10.83
2023-10-30T05:52:18.704Z,10.81
2023-10-30T05:54:48.556Z,10.78
2023-10-30T05:57:16.741Z,10.84
2023-10-30T05:59:45.845Z,10.68
2023-10-30T06:02:15.523Z,10.47
2023-10-30T06:04:44.279Z,10.49
2023-10-30T06:07:12.414Z,10.36
2023-10-30T06:09:40.718Z,10.33
2023-10-30T06:12:10.843Z,10.24
2023-10-30T06:14:39.019Z,10.24
2023-10-30T06:17:07.912Z,10.26
2023-10-30T06:19:37.679Z,10.25
2023-10-30T06:22:06.518Z,10.23
2023-10-30T06:24:34.997Z,10.21
2023-10-30T06:27:03.527Z,10.17
2023-10-30T06:29:33.635Z,10.09
2023-10-30T06:32:01.888Z,10.08
2023-10-30T06:34:30.053Z,10.12
2023-10-30T06:36:58.406Z,10.15
2023-10-30T06:39:26.750Z,10.25
2023-10-30T06:41:56.516Z,10.23
2023-10-30T06:44:25.669Z,10.26
2023-10-30T06:46:58.078Z,10.38
2023-10-30T06:49:26.545Z,10.24
2023-10-30T06:51:54.907Z,10.45
2023-10-30T06:54:23.144Z,10.41
2023-10-30T06:56:52.032Z,10.45
2023-10-30T06:59:20.138Z,10.53
2023-10-30T07:01:49.198Z,10.36
2023-10-30T07:04:19.059Z,10.73
2023-10-30T07:06:47.781Z,10.66
2023-10-30T07:09:16.332Z,10.70
2023-10-30T07:11:44.766Z,10.78
2023-10-30T07:14:13.044Z,10.74
2023-10-30T07:16:57.057Z,10.86
2023-10-30T07:19:31.349Z,10.88
2023-10-30T07:21:59.862Z,10.70
2023-10-30T07:24:28.359Z,11.00
2023-10-30T07:26:59.195Z,11.03
2023-10-30T07:29:27.306Z,11.06
2023-10-30T07:31:56.835Z,11.06
2023-10-30T07:34:26.090Z,10.90
2023-10-30T07:36:55.864Z,11.13
2023-10-30T07:39:24.370Z,11.13
2023-10-30T07:41:53.503Z,11.07
2023-10-30T07:44:23.935Z,11.19
2023-10-30T07:46:52.628Z,11.29
2023-10-30T07:49:20.982Z,11.22
2023-10-30T07:51:48.997Z,11.06
2023-10-30T07:54:18.947Z,10.93
2023-10-30T07:56:47.013Z,11.27
2023-10-30T07:59:15.661Z,11.31
2023-10-30T08:01:46.828Z,11.38
2023-10-30T08:04:15.155Z,11.31
2023-10-30T08:06:44.395Z,11.33
2023-10-30T08:09:13.422Z,11.35
2023-10-30T08:11:44.551Z,11.35
2023-10-30T08:14:12.863Z,11.36
2023-10-30T08:16:41.124Z,11.40
2023-10-30T08:19:09.126Z,11.34
2023-10-30T08:21:37.217Z,11.38
2023-10-30T08:24:06.041Z,11.35
2023-10-30T08:26:34.291Z,11.06
2023-10-30T08:29:04.311Z,11.17
2023-10-30T08:31:32.649Z,10.75
2023-10-30T08:34:02.332Z,10.73
2023-10-30T08:36:30.661Z,11.42
2023-10-30T08:38:59.047Z,10.99
2023-10-30T08:41:28.088Z,11.50
2023-10-30T08:43:56.450Z,11.46
2023-10-30T08:46:26.015Z,11.57
2023-10-30T08:48:54.393Z,11.58
2023-10-30T08:51:22.433Z,11.57
2023-10-30T08:53:52.998Z,11.73
2023-10-30T08:56:21.485Z,11.88
2023-10-30T08:58:49.400Z,12.00
2023-10-30T09:01:17.601Z,12.04
2023-10-30T09:03:46.996Z,12.11
2023-10-30T09:06:15.417Z,12.28
2023-10-30T09:08:43.759Z,12.38
2023-10-30T09:11:11.842Z,12.56
2023-10-30T09:13:40.505Z,12.78
2023-10-30T09:16:10.003Z,12.98
2023-10-30T09:18:38.282Z,13.27
2023-10-30T09:21:08.405Z,13.29
2023-10-30T09:23:37.302Z,13.28
2023-10-30T09:26:05.916Z,13.36
2023-10-30T09:28:34.350Z,13.32
2023-10-30T09:31:02.601Z,13.43
2023-10-30T09:33:30.704Z,13.52
2023-10-30T09:35:59.136Z,13.34
2023-10-30T09:38:28.517Z,13.42
2023-10-30T09:41:02.413Z,13.42
2023-10-30T09:43:31.020Z,13.23
2023-10-30T09:46:01.905Z,13.55
2023-10-30T09:48:33.397Z,13.55
2023-10-30T09:51:02.163Z,13.59
2023-10-30T09:53:32.276Z,13.64
2023-10-30T09:56:01.201Z,13.73
2023-10-30T09:58:30.236Z,13.77
2023-10-30T10:00:59.234Z,13.89
2023-10-30T10:03:27.690Z,14.03
2023-10-30T10:05:57.691Z,13.91
2023-10-30T10:08:27.455Z,14.23
2023-10-30T10:10:58.044Z,14.00
2023-10-30T10:13:27.037Z,14.27
2023-10-30T10:15:56.306Z,14.38
2023-10-30T10:18:26.537Z,14.48
2023-10-30T10:21:00.111Z,14.67
2023-10-30T10:23:31.719Z,14.70
2023-10-30T10:26:04.274Z,14.69
2023-10-30T10:28:33.653Z,14.71
2023-10-30T10:31:02.245Z,14.62
2023-10-30T10:33:31.194Z,14.73
2023-10-30T10:36:02.197Z,14.54
2023-10-30T10:38:30.595Z,14.94
2023-10-30T10:40:59.171Z,15.12
2023-10-30T10:43:30.556Z,14.74
2023-10-30T10:46:00.890Z,15.47
2023-10-30T10:48:30.159Z,15.43
2023-10-30T10:51:03.292Z,15.46
2023-10-30T10:53:32.842Z,15.31
2023-10-30T10:56:06.245Z,15.21
2023-10-30T10:58:43.375Z,15.04
2023-10-30T11:01:19.730Z,15.15
2023-10-30T11:03:50.047Z,15.43
2023-10-30T11:06:20.031Z,15.58
2023-10-30T11:08:56.921Z,15.56
2023-10-30T11:11:30.884Z,15.60
2023-10-30T11:14:13.708Z,15.15
2023-10-30T11:16:49.837Z,15.36
2023-10-30T11:19:21.966Z,15.32
2023-10-30T11:21:51.212Z,15.17
2023-10-30T11:24:38.707Z,15.14
2023-10-30T11:27:38.035Z,15.22
2023-10-30T11:30:12.894Z,14.92
2023-10-30T11:32:55.303Z,15.03
2023-10-30T11:35:24.220Z,14.91
2023-10-30T11:37:54.070Z,14.91
2023-10-30T11:40:22.932Z,14.93
2023-10-30T11:42:58.764Z,14.87
2023-10-30T11:45:30.022Z,14.75
2023-10-30T11:48:06.387Z,14.78
2023-10-30T11:50:36.593Z,14.84
2023-10-30T11:53:12.528Z,14.84
2023-10-30T11:55:41.772Z,14.94
2023-10-30T11:58:11.843Z,15.12
2023-10-30T12:00:43.740Z,15.27
2023-10-30T12:03:12.068Z,15.33
2023-10-30T12:05:40.310Z,15.37
2023-10-30T12:08:11.218Z,15.37
2023-10-30T12:10:40.667Z,15.44
2023-10-30T12:13:10.393Z,15.40
2023-10-30T12:15:38.477Z,15.42
2023-10-30T12:18:08.288Z,15.60
2023-10-30T12:20:36.840Z,15.64
2023-10-30T12:23:05.487Z,15.57
2023-10-30T12:25:34.058Z,15.48
2023-10-30T12:28:02.973Z,15.60
2023-10-30T12:30:35.359Z,15.68
2023-10-30T12:33:04.246Z,15.52
2023-10-30T12:35:35.446Z,15.37
2023-10-30T12:38:14.890Z,15.39
2023-10-30T12:40:45.972Z,15.23
2023-10-30T12:43:14.714Z,15.22
2023-10-30T12:45:43.200Z,15.18
2023-10-30T12:48:11.332Z,15.04
2023-10-30T12:50:42.082Z,15.03
2023-10-30T12:53:12.516Z,15.07
2023-10-30T12:55:41.155Z,15.08
2023-10-30T12:58:09.140Z,14.61
2023-10-30T13:00:37.059Z,14.92
2023-10-30T13:03:05.323Z,14.84
2023-10-30T13:05:33.398Z,14.94
2023-10-30T13:08:03.067Z,14.34
2023-10-30T13:10:31.198Z,14.97
2023-10-30T13:12:59.190Z,15.03
2023-10-30T13:15:27.825Z,14.96
2023-10-30T13:17:56.069Z,14.89
2023-10-30T13:20:24.507Z,14.92
2023-10-30T13:22:52.695Z,14.91
2023-10-30T13:25:22.487Z,14.44
2023-10-30T13:27:50.469Z,14.94
2023-10-30T13:30:20.029Z,14.70
2023-10-30T13:32:48.030Z,14.86
2023-10-30T13:35:16.305Z,14.84
2023-10-30T13:37:44.550Z,14.82
2023-10-30T13:40:14.437Z,14.48
2023-10-30T13:42:44.177Z,14.73
2023-10-30T13:45:12.525Z,14.69
2023-10-30T13:47:40.752Z,14.67
2023-10-30T13:50:09.361Z,14.74
2023-10-30T13:52:37.360Z,14.64
2023-10-30T13:55:06.946Z,14.65
2023-10-30T13:57:35.225Z,14.61
2023-10-30T14:00:07.347Z,14.80
2023-10-30T14:02:35.352Z,14.75
2023-10-30T14:05:04.528Z,14.71
2023-10-30T14:07:33.325Z,14.75
2023-10-30T14:10:01.704Z,14.72
2023-10-30T14:12:30.659Z,14.80
2023-10-30T14:14:58.972Z,14.73
2023-10-30T14:17:28.759Z,14.69
2023-10-30T14:19:56.913Z,14.70
2023-10-30T14:22:25.135Z,14.71
2023-10-30T14:24:53.481Z,14.53
2023-10-30T14:27:21.935Z,14.44
2023-10-30T14:29:51.252Z,14.54
2023-10-30T14:32:19.873Z,14.53
2023-10-30T14:34:50.101Z,14.42
2023-10-30T14:37:18.136Z,14.34
2023-10-30T14:39:47.032Z,14.30
2023-10-30T14:42:14.987Z,14.36
2023-10-30T14:44:43.097Z,14.38
2023-10-30T14:47:11.522Z,14.24
2023-10-30T14:49:39.484Z,14.29
2023-10-30T14:52:09.857Z,14.28
2023-10-30T14:54:37.983Z,14.08
2023-10-30T14:57:06.389Z,14.32
2023-10-30T14:59:34.689Z,14.21
2023-10-30T15:02:03.386Z,14.26
2023-10-30T15:04:31.628Z,14.17
2023-10-30T15:07:01.282Z,14.09
2023-10-30T15:09:31.082Z,14.13
2023-10-30T15:11:59.337Z,14.04
2023-10-30T15:14:29.801Z,13.96
2023-10-30T15:16:58.170Z,13.92
2023-10-30T15:19:28.075Z,13.75
2023-10-30T15:21:56.788Z,13.81
2023-10-30T15:24:25.937Z,13.19
2023-10-30T15:26:56.752Z,13.67
2023-10-30T15:29:25.197Z,13.65
2023-10-30T15:31:53.233Z,13.73
2023-10-30T15:34:21.529Z,13.52
2023-10-30T15:36:52.947Z,13.51
2023-10-30T15:39:22.183Z,13.42
2023-10-30T15:41:50.445Z,13.61
2023-10-30T15:44:20.127Z,13.58
2023-10-30T15:46:56.947Z,13.60
2023-10-30T15:49:27.043Z,13.54
2023-10-30T15:59:27.786Z,13.44
2023-10-30T16:04:24.819Z,13.39
2023-10-30T16:07:11.286Z,13.34
2023-10-30T16:09:39.691Z,13.24
2023-10-30T16:14:43.639Z,13.00
2023-10-30T16:19:43.445Z,13.08
2023-10-30T16:22:12.775Z,13.09
2023-10-30T16:24:40.844Z,13.07
2023-10-30T16:27:09.129Z,13.04
2023-10-30T16:29:37.289Z,12.98
2023-10-30T16:32:07.321Z,12.88
2023-10-30T16:34:35.680Z,12.86
2023-10-30T16:37:05.062Z,12.77
2023-10-30T16:39:33.259Z,12.65
2023-10-30T16:42:01.446Z,12.71
2023-10-30T16:44:30.214Z,12.71
2023-10-30T16:46:58.785Z,12.74
2023-10-30T16:49:28.411Z,12.80
2023-10-30T16:51:57.108Z,12.85
2023-10-30T16:54:25.226Z,12.79
2023-10-30T16:56:53.170Z,12.75
2023-10-30T16:59:21.252Z,12.79
2023-10-30T17:01:51.200Z,12.80
2023-10-30T17:04:19.363Z,12.74
2023-10-30T17:06:48.889Z,12.70
2023-10-30T17:09:17.161Z,12.70
2023-10-30T17:11:45.825Z,12.46
2023-10-30T17:14:15.528Z,12.79
2023-10-30T17:16:45.961Z,12.81
2023-10-30T17:19:16.298Z,12.77
2023-10-30T17:21:44.633Z,12.81
2023-10-30T17:24:14.320Z,12.85
2023-10-30T17:26:42.545Z,12.60
2023-10-30T17:29:11.062Z,12.70
2023-10-30T17:31:39.397Z,12.69
2023-10-30T17:34:08.022Z,12.66
2023-10-30T17:36:36.349Z,12.68
2023-10-30T17:39:07.914Z,12.69
2023-10-30T17:41:37.537Z,12.64
2023-10-30T17:44:06.645Z,12.61
2023-10-30T17:46:35.114Z,12.58
2023-10-30T17:49:03.454Z,12.59
2023-10-30T17:51:31.548Z,12.15
2023-10-30T17:53:59.750Z,12.53
2023-10-30T17:56:31.726Z,12.35
2023-10-30T17:59:01.296Z,12.90
2023-10-30T18:01:30.043Z,12.73
2023-10-30T18:03:58.331Z,12.63
2023-10-30T18:06:25.757Z,12.94
2023-10-30T18:08:54.283Z,12.77
2023-10-30T18:11:23.899Z,12.83
2023-10-30T18:13:52.248Z,12.64
2023-10-30T18:16:22.151Z,12.67
2023-10-30T18:18:50.512Z,12.79
2023-10-30T18:21:18.939Z,12.37
2023-10-30T18:23:47.226Z,12.70
2023-10-30T18:26:22.382Z,12.47
2023-10-30T18:28:50.506Z,12.85
2023-10-30T18:31:18.897Z,12.77
2023-10-30T18:33:49.184Z,12.70
2023-10-30T18:36:17.153Z,12.92
2023-10-30T18:38:45.934Z,12.91
2023-10-30T18:41:14.070Z,12.77
2023-10-30T18:43:43.702Z,12.74
2023-10-30T18:46:17.178Z,12.21
2023-10-30T18:48:46.051Z,12.60
2023-10-30T18:51:15.758Z,12.00
2023-10-30T18:53:44.364Z,11.79
2023-10-30T18:56:14.378Z,12.68
2023-10-30T18:58:42.762Z,12.57
2023-10-30T19:01:11.807Z,12.66
2023-10-30T19:03:41.846Z,12.45
2023-10-30T19:06:11.417Z,12.56
2023-10-30T19:08:40.906Z,12.42
2023-10-30T19:11:09.406Z,12.46
2023-10-30T19:13:38.420Z,12.46
2023-10-30T19:16:06.915Z,12.42
2023-10-30T19:18:35.278Z,12.43
2023-10-30T19:21:04.308Z,12.45
2023-10-30T19:23:32.464Z,12.46
2023-10-30T19:26:02.867Z,12.45
2023-10-30T19:28:30.853Z,11.87
2023-10-30T19:31:03.557Z,12.40
2023-10-30T19:33:32.464Z,12.47
2023-10-30T19:36:00.732Z,12.31
2023-10-30T19:38:29.332Z,12.24
2023-10-30T19:40:57.687Z,12.41
2023-10-30T19:43:28.447Z,12.37
2023-10-30T19:45:56.972Z,12.40
2023-10-30T19:48:27.148Z,11.92
2023-10-30T19:50:55.215Z,12.44
2023-10-30T19:53:23.815Z,12.38
2023-10-30T19:55:52.092Z,12.28
2023-10-30T19:58:21.365Z,12.33
2023-10-30T20:00:51.229Z,12.38
2023-10-30T20:03:20.848Z,12.35
2023-10-30T20:05:48.963Z,12.35
2023-10-30T20:08:17.655Z,12.38
2023-10-30T20:10:47.292Z,12.31
2023-10-30T20:13:16.944Z,12.34
2023-10-30T20:15:45.282Z,11.85
2023-10-30T20:18:15.029Z,12.31
2023-10-30T20:20:43.396Z,12.15
2023-10-30T20:23:11.898Z,12.28
2023-10-30T20:25:39.972Z,12.22
2023-10-30T20:28:08.225Z,12.30
2023-10-30T20:30:36.604Z,12.35
2023-10-30T20:33:04.900Z,11.96
2023-10-30T20:35:34.661Z,11.65
2023-10-30T20:38:03.024Z,11.63
2023-10-30T20:40:31.498Z,12.25
2023-10-30T20:43:01.023Z,12.30
2023-10-30T20:45:29.426Z,12.27
2023-10-30T20:47:57.872Z,12.15
2023-10-30T20:50:26.179Z,11.82
2023-10-30T20:52:55.671Z,11.98
2023-10-30T20:55:23.745Z,12.19
2023-10-30T20:57:52.062Z,12.01
2023-10-30T21:00:20.993Z,12.33
2023-10-30T21:02:49.048Z,11.96
2023-10-30T21:05:18.267Z,12.35
2023-10-30T21:07:46.281Z,12.32
2023-10-30T21:10:15.910Z,12.30
2023-10-30T21:12:44.065Z,11.88
2023-10-30T21:15:12.816Z,12.30
2023-10-30T21:17:40.871Z,12.28
2023-10-30T21:20:09.895Z,11.90
2023-10-30T21:22:38.364Z,12.11
2023-10-30T21:25:07.249Z,12.27
2023-10-30T21:27:37.729Z,12.31
2023-10-30T21:30:07.232Z,12.29
2023-10-30T21:32:35.869Z,12.26
2023-10-30T21:35:05.785Z,12.19
2023-10-30T21:37:34.561Z,12.19
2023-10-30T21:40:03.084Z,12.03
2023-10-30T21:42:31.413Z,12.22
2023-10-30T21:45:00.959Z,12.22
2023-10-30T21:47:30.984Z,12.29
2023-10-30T21:50:01.274Z,12.24
2023-10-30T21:52:29.683Z,12.22
2023-10-30T21:54:58.006Z,11.99
2023-10-30T21:57:26.176Z,12.13
2023-10-30T21:59:54.527Z,11.88
2023-10-30T22:02:24.318Z,12.07
2023-10-30T22:04:52.959Z,12.07
2023-10-30T22:07:22.140Z,11.91
2023-10-30T22:09:50.246Z,12.06
2023-10-30T22:12:18.500Z,12.10
2023-10-30T22:14:46.773Z,11.97
2023-10-30T22:17:15.017Z,11.92
2023-10-30T22:19:45.766Z,12.09
2023-10-30T22:22:14.095Z,12.08
2023-10-30T22:24:41.947Z,11.93
2023-10-30T22:27:10.369Z,12.01
2023-10-30T22:29:38.542Z,11.63
2023-10-30T22:32:07.048Z,12.01
2023-10-30T22:34:35.025Z,12.04
2023-10-30T22:37:05.759Z,12.01
2023-10-30T22:39:33.856Z,11.73
2023-10-30T22:42:03.000Z,12.03
2023-10-30T22:44:31.448Z,12.00
2023-10-30T22:47:00.101Z,12.03
2023-10-30T22:49:28.154Z,12.08
2023-10-30T22:51:56.394Z,11.93
2023-10-30T22:54:26.353Z,12.08
2023-10-30T22:56:54.246Z,12.12
2023-10-30T22:59:22.252Z,12.02
2023-10-30T23:01:50.551Z,11.99
2023-10-30T23:04:18.743Z,12.16
2023-10-30T23:06:46.807Z,12.15
2023-10-30T23:09:15.569Z,11.87
2023-10-30T23:11:45.400Z,12.08
2023-10-30T23:14:13.709Z,12.18
2023-10-30T23:16:42.334Z,12.06
2023-10-30T23:19:10.707Z,12.01
2023-10-30T23:21:38.767Z,11.98
2023-10-30T23:24:07.883Z,11.94
2023-10-30T23:26:35.992Z,12.03
2023-10-30T23:29:05.869Z,12.00
2023-10-30T23:31:34.385Z,12.02
2023-10-30T23:34:03.534Z,12.03
2023-10-30T23:36:31.906Z,11.98
2023-10-30T23:39:00.029Z,11.93
2023-10-30T23:41:28.380Z,11.93
2023-10-30T23:43:56.484Z,11.92
2023-10-30T23:46:35.351Z,11.96
2023-10-30T23:49:07.344Z,12.02
2023-10-30T23:51:35.422Z,12.01
2023-10-30T23:54:03.807Z,12.06
2023-10-30T23:56:31.803Z,12.03
2023-10-30T23:59:00.596Z,12.06
